createdAt,value
2019-06-26T00:00:27.571Z,57.40
2019-06-26T00:02:58.171Z,59.58
2019-06-26T00:05:29.093Z,57.67
2019-06-26T00:07:59.603Z,56.95
2019-06-26T00:10:30.167Z,56.15
2019-06-26T00:13:00.680Z,52.35
2019-06-26T00:15:32.333Z,46.40
2019-06-26T00:18:02.843Z,46.45
2019-06-26T00:20:33.348Z,46.55
2019-06-26T00:23:03.952Z,47.33
2019-06-26T00:29:35.543Z,46.68
2019-06-26T00:32:06.178Z,45.67
2019-06-26T00:34:36.715Z,43.95
2019-06-26T00:37:07.212Z,44.88
2019-06-26T00:39:37.892Z,44.93
2019-06-26T00:42:08.449Z,49.45
2019-06-26T00:44:38.969Z,50.30
2019-06-26T00:47:09.532Z,51.42
2019-06-26T00:49:40.115Z,50.25
2019-06-26T00:52:10.635Z,50.25
2019-06-26T00:54:41.212Z,50.78
2019-06-26T00:57:11.735Z,48.80
2019-06-26T00:59:42.236Z,48.83
2019-06-26T01:02:13.819Z,49.27
2019-06-26T01:04:54.972Z,46.30
2019-06-26T01:07:25.476Z,44.60
2019-06-26T01:09:55.983Z,43.98
2019-06-26T01:12:26.487Z,43.45
2019-06-26T01:14:56.996Z,42.38
2019-06-26T01:17:27.509Z,46.23
2019-06-26T01:19:58.020Z,42.80
2019-06-26T01:22:28.529Z,42.80
2019-06-26T01:24:59.029Z,43.55
2019-06-26T01:27:29.542Z,44.30
2019-06-26T01:30:00.040Z,45.75
2019-06-26T01:32:30.587Z,48.73
2019-06-26T01:35:01.251Z,48.25
2019-06-26T01:37:31.820Z,47.38
2019-06-26T01:40:02.401Z,47.83
2019-06-26T01:42:33.008Z,48.48
2019-06-26T01:45:05.293Z,49.03
2019-06-26T01:47:35.801Z,50.63
2019-06-26T01:50:06.806Z,50.60
2019-06-26T01:52:37.415Z,51.92
2019-06-26T01:55:08.382Z,51.25
2019-06-26T01:57:38.885Z,49.50
2019-06-26T02:00:12.026Z,53.90
2019-06-26T02:02:42.604Z,50.55
2019-06-26T02:05:13.242Z,49.77
2019-06-26T02:07:43.847Z,52.23
2019-06-26T02:10:14.509Z,51.30
2019-06-26T02:12:45.012Z,52.20
2019-06-26T02:15:15.738Z,52.57
2019-06-26T02:17:46.311Z,51.88
2019-06-26T02:20:16.974Z,53.97
2019-06-26T02:22:49.544Z,58.33
2019-06-26T02:25:19.855Z,57.10
2019-06-26T02:27:50.365Z,54.60
2019-06-26T02:30:20.949Z,54.60
2019-06-26T02:32:51.466Z,57.10
2019-06-26T02:35:22.964Z,57.13
2019-06-26T02:37:54.543Z,56.90
2019-06-26T02:40:25.225Z,53.83
2019-06-26T02:42:55.740Z,56.15
2019-06-26T02:45:26.259Z,66.57
2019-06-26T02:47:56.759Z,64.67
2019-06-26T02:50:27.289Z,68.17
2019-06-26T02:52:57.773Z,63.73
2019-06-26T02:55:28.279Z,60.85
2019-06-26T02:57:58.840Z,59.30
2019-06-26T03:00:29.352Z,63.38
2019-06-26T03:02:59.878Z,63.30
2019-06-26T03:05:30.406Z,61.75
2019-06-26T03:08:00.937Z,59.93
2019-06-26T03:10:31.467Z,65.37
2019-06-26T03:13:01.978Z,63.60
2019-06-26T03:15:32.488Z,65.87
2019-06-26T03:18:03.577Z,65.47
2019-06-26T03:20:40.254Z,67.00
2019-06-26T03:23:10.774Z,67.65
2019-06-26T03:25:41.297Z,67.45
2019-06-26T03:28:11.867Z,70.00
2019-06-26T03:30:42.376Z,70.55
2019-06-26T03:33:13.916Z,65.15
2019-06-26T03:35:44.424Z,70.70
2019-06-26T03:38:14.936Z,72.70
2019-06-26T03:40:45.448Z,74.60
2019-06-26T03:43:15.971Z,75.65
2019-06-26T03:45:46.491Z,75.00
2019-06-26T03:48:16.996Z,74.60
2019-06-26T03:50:47.721Z,76.75
2019-06-26T03:53:18.239Z,81.70
2019-06-26T03:55:48.756Z,80.85
2019-06-26T03:58:20.320Z,79.97
2019-06-26T04:00:50.843Z,83.67
2019-06-26T04:03:21.386Z,82.40
2019-06-26T04:05:51.961Z,86.47
2019-06-26T04:08:22.520Z,82.85
2019-06-26T04:10:53.933Z,86.20
2019-06-26T04:13:24.448Z,89.85
2019-06-26T04:15:56.154Z,88.45
2019-06-26T04:18:26.672Z,89.07
2019-06-26T04:20:57.205Z,87.57
2019-06-26T04:23:27.721Z,87.50
2019-06-26T04:25:58.322Z,88.82
2019-06-26T04:28:28.850Z,87.22
2019-06-26T04:30:59.930Z,88.92
2019-06-26T04:33:30.453Z,88.70
2019-06-26T04:36:00.969Z,91.57
2019-06-26T04:38:31.485Z,89.28
2019-06-26T04:41:01.994Z,92.70
2019-06-26T04:43:32.526Z,93.35
2019-06-26T04:46:04.078Z,86.80
2019-06-26T04:48:34.607Z,92.00
2019-06-26T04:51:05.678Z,93.60
2019-06-26T04:53:36.218Z,93.82
2019-06-26T04:56:06.802Z,95.00
2019-06-26T04:58:37.317Z,94.60
2019-06-26T05:01:07.886Z,92.20
2019-06-26T05:03:38.457Z,95.03
2019-06-26T05:06:08.982Z,94.72
2019-06-26T05:08:39.581Z,92.37
2019-06-26T05:11:12.619Z,94.62
2019-06-26T05:13:42.313Z,98.67
2019-06-26T05:16:15.745Z,97.02
2019-06-26T05:18:45.543Z,94.62
2019-06-26T05:21:16.130Z,97.15
2019-06-26T05:23:47.019Z,96.95
2019-06-26T05:26:17.549Z,96.87
2019-06-26T05:28:48.067Z,99.30
2019-06-26T05:31:18.627Z,98.42
2019-06-26T05:33:49.167Z,96.87
2019-06-26T05:36:19.703Z,98.78
2019-06-26T05:38:51.751Z,96.15
2019-06-26T05:41:26.563Z,100.30
2019-06-26T05:43:58.803Z,103.45
2019-06-26T05:46:31.453Z,104.77
2019-06-26T05:49:01.571Z,103.97
2019-06-26T05:51:32.098Z,103.87
2019-06-26T05:54:02.620Z,105.10
2019-06-26T05:56:33.142Z,100.00
2019-06-26T05:59:08.791Z,101.00
2019-06-26T06:01:39.318Z,101.53
2019-06-26T06:04:09.834Z,103.02
2019-06-26T06:06:42.150Z,98.75
2019-06-26T06:09:12.546Z,101.58
2019-06-26T06:11:43.096Z,104.43
2019-06-26T06:14:13.606Z,100.25
2019-06-26T06:16:47.673Z,96.40
2019-06-26T06:19:16.350Z,100.65
2019-06-26T06:21:46.902Z,94.52
2019-06-26T06:24:17.431Z,96.28
2019-06-26T06:26:47.938Z,96.12
2019-06-26T06:29:18.519Z,93.33
2019-06-26T06:31:49.048Z,97.30
2019-06-26T06:34:19.617Z,91.70
2019-06-26T06:36:50.214Z,91.47
2019-06-26T06:39:20.744Z,87.00
2019-06-26T06:41:51.355Z,92.27
2019-06-26T06:44:22.848Z,86.40
2019-06-26T06:47:03.383Z,92.12
2019-06-26T06:49:25.627Z,87.88
2019-06-26T06:51:56.200Z,85.10
2019-06-26T06:54:26.801Z,87.50
2019-06-26T06:56:57.327Z,88.35
2019-06-26T06:59:27.869Z,87.10
2019-06-26T07:01:58.411Z,85.60
2019-06-26T07:04:29.108Z,83.78
2019-06-26T07:06:59.852Z,82.88
2019-06-26T07:09:30.408Z,85.75
2019-06-26T07:12:01.008Z,86.02
2019-06-26T07:14:31.548Z,84.52
2019-06-26T07:17:02.088Z,86.60
2019-06-26T07:19:32.692Z,86.65
2019-06-26T07:22:07.110Z,87.92
2019-06-26T07:24:36.292Z,86.40
2019-06-26T07:27:06.930Z,88.47
2019-06-26T07:29:38.500Z,88.35
2019-06-26T07:32:09.159Z,83.85
2019-06-26T07:34:39.842Z,83.35
2019-06-26T07:37:10.388Z,83.75
2019-06-26T07:39:40.989Z,86.00
2019-06-26T07:42:11.597Z,85.10
2019-06-26T07:44:42.113Z,84.52
2019-06-26T07:47:22.601Z,81.75
2019-06-26T07:49:44.966Z,85.38
2019-06-26T07:52:15.576Z,81.82
2019-06-26T07:54:46.161Z,80.17
2019-06-26T07:57:16.670Z,81.63
2019-06-26T07:59:47.216Z,81.28
2019-06-26T08:02:17.818Z,82.15
2019-06-26T08:04:49.277Z,81.63
2019-06-26T08:07:19.902Z,82.88
2019-06-26T08:09:50.438Z,81.65
2019-06-26T08:12:20.986Z,81.40
2019-06-26T08:14:51.594Z,85.10
2019-06-26T08:17:22.126Z,86.05
2019-06-26T08:19:52.709Z,79.95
2019-06-26T08:22:23.268Z,81.08
2019-06-26T08:24:54.325Z,81.72
2019-06-26T08:27:24.850Z,80.50
2019-06-26T08:29:55.506Z,81.87
2019-06-26T08:32:26.191Z,81.12
2019-06-26T08:34:56.763Z,79.92
2019-06-26T08:37:29.984Z,83.27
2019-06-26T08:40:00.861Z,86.25
2019-06-26T08:42:31.659Z,86.35
2019-06-26T08:45:02.161Z,81.85
2019-06-26T08:47:32.687Z,80.87
2019-06-26T08:50:04.948Z,79.12
2019-06-26T08:52:35.512Z,85.95
2019-06-26T08:55:09.375Z,80.22
2019-06-26T08:57:39.959Z,79.03
2019-06-26T09:00:12.930Z,85.07
2019-06-26T09:02:43.536Z,82.88
2019-06-26T09:05:15.403Z,82.53
2019-06-26T09:07:45.921Z,81.02
2019-06-26T09:10:16.793Z,85.53
2019-06-26T09:12:47.378Z,84.55
2019-06-26T09:15:17.950Z,81.47
2019-06-26T09:17:48.531Z,81.28
2019-06-26T09:20:31.014Z,83.37
2019-06-26T09:23:01.771Z,82.65
2019-06-26T09:25:32.390Z,83.65
2019-06-26T09:28:03.827Z,81.30
2019-06-26T09:33:05.206Z,83.22
2019-06-26T09:35:35.704Z,81.30
2019-06-26T09:38:07.264Z,84.90
2019-06-26T09:40:37.792Z,79.32
2019-06-26T09:43:28.866Z,79.95
2019-06-26T09:46:10.376Z,80.87
2019-06-26T09:48:52.025Z,85.67
2019-06-26T09:53:47.770Z,89.92
2019-06-26T09:56:16.528Z,88.72
2019-06-26T09:58:47.081Z,88.60
2019-06-26T10:01:17.684Z,86.40
2019-06-26T10:03:48.200Z,87.95
2019-06-26T10:06:18.780Z,86.63
2019-06-26T10:08:49.336Z,85.70
2019-06-26T10:11:19.861Z,96.67
2019-06-26T10:13:50.422Z,92.00
2019-06-26T10:16:20.926Z,87.45
2019-06-26T10:19:05.591Z,87.67
2019-06-26T10:21:23.845Z,85.17
2019-06-26T10:23:54.375Z,83.25
2019-06-26T10:26:24.957Z,83.03
2019-06-26T10:28:55.524Z,86.92
2019-06-26T10:31:27.010Z,84.83
2019-06-26T10:33:57.539Z,81.12
2019-06-26T10:36:28.095Z,85.47
2019-06-26T10:38:58.640Z,86.40
2019-06-26T10:41:29.162Z,90.40
2019-06-26T10:43:59.714Z,85.80
2019-06-26T10:46:30.229Z,76.65
2019-06-26T10:49:00.762Z,75.95
2019-06-26T10:51:31.289Z,80.97
2019-06-26T10:54:01.837Z,77.05
2019-06-26T10:56:32.425Z,76.47
2019-06-26T10:59:03.080Z,79.80
2019-06-26T11:01:33.638Z,70.78
2019-06-26T11:04:05.327Z,66.15
2019-06-26T11:06:37.173Z,70.20
2019-06-26T11:09:09.033Z,73.50
2019-06-26T11:11:39.693Z,71.33
2019-06-26T11:14:10.342Z,71.45
2019-06-26T11:16:40.871Z,68.87
2019-06-26T11:19:11.394Z,63.65
2019-06-26T11:21:41.990Z,64.05
2019-06-26T11:24:12.554Z,62.38
2019-06-26T11:26:43.273Z,65.65
2019-06-26T11:29:13.903Z,60.92
2019-06-26T11:31:44.420Z,60.75
2019-06-26T11:34:14.935Z,55.00
2019-06-26T11:36:59.475Z,60.23
2019-06-26T11:39:17.662Z,56.40
2019-06-26T11:41:48.206Z,57.73
2019-06-26T11:44:18.733Z,57.03
2019-06-26T11:46:49.530Z,50.85
2019-06-26T11:49:20.034Z,49.48
2019-06-26T11:51:50.704Z,53.25
2019-06-26T11:54:22.124Z,59.33
2019-06-26T11:56:54.977Z,52.45
2019-06-26T11:59:26.453Z,49.65
2019-06-26T12:01:56.969Z,50.78
2019-06-26T12:04:27.630Z,45.33
2019-06-26T12:06:58.158Z,49.33
2019-06-26T12:09:28.690Z,44.98
2019-06-26T12:12:00.912Z,47.63
2019-06-26T12:14:31.428Z,48.42
2019-06-26T12:17:01.938Z,49.58
2019-06-26T12:19:32.454Z,44.90
2019-06-26T12:22:02.963Z,43.80
2019-06-26T12:24:33.482Z,53.87
2019-06-26T12:27:04.063Z,51.37
2019-06-26T12:29:34.566Z,48.42
2019-06-26T12:32:05.203Z,47.50
2019-06-26T12:34:35.755Z,45.65
2019-06-26T12:37:07.215Z,51.13
2019-06-26T12:39:37.763Z,44.60
2019-06-26T12:42:08.427Z,41.73
2019-06-26T12:44:39.095Z,45.65
2019-06-26T12:47:09.603Z,48.13
2019-06-26T12:49:40.148Z,47.80
2019-06-26T12:52:10.796Z,44.08
2019-06-26T12:54:41.586Z,48.23
2019-06-26T12:57:19.000Z,43.25
2019-06-26T12:59:57.112Z,43.00
2019-06-26T13:02:22.314Z,46.77
2019-06-26T13:04:52.922Z,49.18
2019-06-26T13:07:23.421Z,43.38
2019-06-26T13:09:55.638Z,41.50
2019-06-26T13:12:26.214Z,35.60
2019-06-26T13:14:56.895Z,37.30
2019-06-26T13:17:29.305Z,34.80
2019-06-26T13:20:00.700Z,31.52
2019-06-26T13:22:31.891Z,33.35
2019-06-26T13:25:02.617Z,33.08
2019-06-26T13:27:33.187Z,29.25
2019-06-26T13:30:06.359Z,27.90
2019-06-26T13:35:08.259Z,31.73
2019-06-26T13:37:38.788Z,29.35
2019-06-26T13:40:09.551Z,30.43
2019-06-26T13:42:40.332Z,28.27
2019-06-26T13:45:11.003Z,27.40
2019-06-26T13:47:41.533Z,27.55
2019-06-26T13:50:13.272Z,26.73
2019-06-26T13:52:43.812Z,23.92
2019-06-26T13:55:14.461Z,23.65
2019-06-26T13:57:45.122Z,22.35
2019-06-26T14:00:16.087Z,20.17
2019-06-26T14:02:46.619Z,18.87
2019-06-26T14:05:18.291Z,20.00
2019-06-26T14:07:48.811Z,18.45
2019-06-26T14:10:19.394Z,18.33
2019-06-26T14:12:50.971Z,14.43
2019-06-26T14:15:22.673Z,16.57
2019-06-26T14:17:54.273Z,14.50
2019-06-26T14:20:24.849Z,16.27
2019-06-26T14:22:55.445Z,14.68
2019-06-26T14:25:26.020Z,15.03
2019-06-26T14:27:56.641Z,15.50
2019-06-26T14:30:28.821Z,12.20
2019-06-26T14:32:59.418Z,13.90
2019-06-26T14:35:30.021Z,12.85
2019-06-26T14:38:00.573Z,12.65
2019-06-26T14:40:31.194Z,12.10
2019-06-26T14:43:01.723Z,11.70
2019-06-26T14:45:32.259Z,12.15
2019-06-26T14:48:02.892Z,12.47
2019-06-26T14:50:33.510Z,11.48
2019-06-26T14:53:04.267Z,11.88
2019-06-26T14:55:34.845Z,11.90
2019-06-26T14:58:05.338Z,11.30
2019-06-26T15:00:35.874Z,11.33
2019-06-26T15:03:06.385Z,12.40
2019-06-26T15:05:36.900Z,11.33
2019-06-26T15:08:07.417Z,11.18
2019-06-26T15:10:37.935Z,10.58
2019-06-26T15:13:08.474Z,10.55
2019-06-26T15:15:38.978Z,10.72
2019-06-26T15:18:11.146Z,10.80
2019-06-26T15:20:41.630Z,11.00
2019-06-26T15:23:12.155Z,10.55
2019-06-26T15:25:42.680Z,9.68
2019-06-26T15:28:13.172Z,11.40
2019-06-26T15:30:43.755Z,11.78
2019-06-26T15:33:14.238Z,10.35
2019-06-26T15:35:44.758Z,12.23
2019-06-26T15:38:15.351Z,10.75
2019-06-26T15:40:45.861Z,10.48
2019-06-26T15:43:17.819Z,10.72
2019-06-26T15:45:48.409Z,10.75
2019-06-26T15:48:19.732Z,11.08
2019-06-26T15:50:50.259Z,10.05
2019-06-26T15:53:21.601Z,9.85
2019-06-26T15:55:52.230Z,10.23
2019-06-26T15:58:23.034Z,10.08
2019-06-26T16:00:53.585Z,10.23
2019-06-26T16:03:24.106Z,11.73
2019-06-26T16:05:55.694Z,10.72
2019-06-26T16:08:26.221Z,10.60
2019-06-26T16:10:56.865Z,11.85
2019-06-26T16:13:27.382Z,12.00
2019-06-26T16:15:57.903Z,11.40
2019-06-26T16:18:30.065Z,11.40
2019-06-26T16:21:00.586Z,10.80
2019-06-26T16:23:32.285Z,10.95
2019-06-26T16:26:02.786Z,10.72
2019-06-26T16:28:33.294Z,10.63
2019-06-26T16:31:03.870Z,9.70
2019-06-26T16:33:34.411Z,11.03
2019-06-26T16:36:04.987Z,9.88
2019-06-26T16:38:35.496Z,10.30
2019-06-26T16:41:06.027Z,10.53
2019-06-26T16:43:36.520Z,8.63
2019-06-26T16:46:07.031Z,8.55
2019-06-26T16:48:37.538Z,8.95
2019-06-26T16:51:08.109Z,8.33
2019-06-26T16:53:38.686Z,8.95
2019-06-26T16:56:09.168Z,8.23
2019-06-26T16:58:43.201Z,7.85
2019-06-26T17:01:13.718Z,7.65
2019-06-26T17:03:44.339Z,8.13
2019-06-26T17:06:14.855Z,7.50
2019-06-26T17:08:45.369Z,7.72
2019-06-26T17:11:15.877Z,8.73
2019-06-26T17:13:46.376Z,8.08
2019-06-26T17:16:17.024Z,8.65
2019-06-26T17:18:47.597Z,9.18
2019-06-26T17:21:18.114Z,8.28
2019-06-26T17:23:48.624Z,8.48
2019-06-26T17:26:21.968Z,9.38
2019-06-26T17:28:52.474Z,8.13
2019-06-26T17:31:23.004Z,8.38
2019-06-26T17:33:54.185Z,9.48
2019-06-26T17:36:24.744Z,8.98
2019-06-26T17:38:55.252Z,7.97
2019-06-26T17:41:25.807Z,8.40
2019-06-26T17:43:56.301Z,8.75
2019-06-26T17:46:26.800Z,8.13
2019-06-26T17:48:57.310Z,7.10
2019-06-26T17:51:27.981Z,8.58
2019-06-26T17:53:58.485Z,8.15
2019-06-26T17:56:28.993Z,7.78
2019-06-26T17:58:59.574Z,8.10
2019-06-26T18:01:30.144Z,7.47
2019-06-26T18:04:00.656Z,6.90
2019-06-26T18:06:31.172Z,7.53
2019-06-26T18:09:01.737Z,7.25
2019-06-26T18:11:33.848Z,7.70
2019-06-26T18:14:04.500Z,7.58
2019-06-26T18:16:35.032Z,7.35
2019-06-26T18:19:05.592Z,7.85
2019-06-26T18:21:36.102Z,6.55
2019-06-26T18:24:06.597Z,7.40
2019-06-26T18:26:37.103Z,8.28
2019-06-26T18:29:07.617Z,7.70
2019-06-26T18:31:39.128Z,7.03
2019-06-26T18:34:09.665Z,6.78
2019-06-26T18:36:40.168Z,7.40
2019-06-26T18:39:10.663Z,8.33
2019-06-26T18:41:41.152Z,6.95
2019-06-26T18:44:11.832Z,7.10
2019-06-26T18:46:42.331Z,6.97
2019-06-26T18:49:12.832Z,6.92
2019-06-26T18:51:43.336Z,6.92
2019-06-26T18:54:13.852Z,7.25
2019-06-26T18:56:44.365Z,6.45
2019-06-26T18:59:14.871Z,6.55
2019-06-26T19:01:45.388Z,7.00
2019-06-26T19:04:15.888Z,6.65
2019-06-26T19:06:46.420Z,6.53
2019-06-26T19:09:17.076Z,6.37
2019-06-26T19:11:47.585Z,6.28
2019-06-26T19:14:18.087Z,6.67
2019-06-26T19:16:48.611Z,6.35
2019-06-26T19:19:19.102Z,5.70
2019-06-26T19:21:49.603Z,5.60
2019-06-26T19:24:20.102Z,5.12
2019-06-26T19:26:50.614Z,6.12
2019-06-26T19:29:21.091Z,6.45
2019-06-26T19:31:51.594Z,6.17
2019-06-26T19:34:22.098Z,5.60
2019-06-26T19:36:52.672Z,6.00
2019-06-26T19:39:23.174Z,4.95
2019-06-26T19:41:53.723Z,5.47
2019-06-26T19:44:24.248Z,4.87
2019-06-26T19:46:54.891Z,5.00
2019-06-26T19:49:25.400Z,4.62
2019-06-26T19:51:56.808Z,4.67
2019-06-26T19:54:29.726Z,4.87
2019-06-26T19:56:59.579Z,4.30
2019-06-26T19:59:30.098Z,4.05
2019-06-26T20:02:00.599Z,4.90
2019-06-26T20:04:32.039Z,4.20
2019-06-26T20:07:04.133Z,3.80
2019-06-26T20:09:37.591Z,3.52
2019-06-26T20:12:08.074Z,3.60
2019-06-26T20:14:41.064Z,3.65
2019-06-26T20:17:13.532Z,3.80
2019-06-26T20:19:43.788Z,3.27
2019-06-26T20:22:14.267Z,2.90
2019-06-26T20:24:45.034Z,3.10
2019-06-26T20:27:15.684Z,3.02
2019-06-26T20:29:46.207Z,3.25
2019-06-26T20:32:16.727Z,3.45
2019-06-26T20:34:50.111Z,3.37
2019-06-26T20:37:20.648Z,2.60
2019-06-26T20:39:51.135Z,3.05
2019-06-26T20:42:21.828Z,4.22
2019-06-26T20:44:52.343Z,3.40
2019-06-26T20:47:22.831Z,3.02
2019-06-26T20:49:53.767Z,3.25
2019-06-26T20:52:24.335Z,3.10
2019-06-26T20:55:01.116Z,3.17
2019-06-26T20:57:27.087Z,3.35
2019-06-26T20:59:57.672Z,3.05
2019-06-26T21:02:28.186Z,4.28
2019-06-26T21:04:58.721Z,3.45
2019-06-26T21:07:29.206Z,3.05
2019-06-26T21:09:59.787Z,3.52
2019-06-26T21:12:31.928Z,2.95
2019-06-26T21:15:02.517Z,3.30
2019-06-26T21:17:33.029Z,3.30
2019-06-26T21:20:04.450Z,3.55
2019-06-26T21:22:35.012Z,3.30
2019-06-26T21:25:17.710Z,3.20
2019-06-26T21:27:39.640Z,3.20
2019-06-26T21:30:10.765Z,2.90
2019-06-26T21:32:41.406Z,3.55
2019-06-26T21:35:11.974Z,3.53
2019-06-26T21:37:42.649Z,3.30
2019-06-26T21:40:13.417Z,3.42
2019-06-26T21:42:43.917Z,3.08
2019-06-26T21:45:14.550Z,3.27
2019-06-26T21:47:45.056Z,3.17
2019-06-26T21:50:15.637Z,3.57
2019-06-26T21:52:46.143Z,3.52
2019-06-26T21:55:30.196Z,3.53
2019-06-26T21:58:07.439Z,3.50
2019-06-26T22:00:55.981Z,3.22
2019-06-26T22:03:44.321Z,3.12
2019-06-26T22:06:19.388Z,3.00
2019-06-26T22:09:08.311Z,2.85
2019-06-26T22:11:40.425Z,3.42
2019-06-26T22:14:10.932Z,3.67
2019-06-26T22:16:41.511Z,2.87
2019-06-26T22:19:12.019Z,3.20
2019-06-26T22:21:42.594Z,3.08
2019-06-26T22:24:14.114Z,2.90
2019-06-26T22:26:44.690Z,2.80
2019-06-26T22:29:15.245Z,3.35
2019-06-26T22:31:45.761Z,3.37
2019-06-26T22:34:17.157Z,2.95
2019-06-26T22:36:51.717Z,2.90
2019-06-26T22:39:20.295Z,3.12
2019-06-26T22:41:50.798Z,2.83
2019-06-26T22:44:21.375Z,3.05
2019-06-26T22:46:51.877Z,3.08
2019-06-26T22:49:22.378Z,3.12
2019-06-26T22:51:52.875Z,3.17
2019-06-26T22:54:23.383Z,3.25
2019-06-26T22:56:53.891Z,3.60
2019-06-26T22:59:24.400Z,3.58
2019-06-26T23:01:55.058Z,3.25
2019-06-26T23:04:25.647Z,3.17
2019-06-26T23:06:56.143Z,3.02
2019-06-26T23:09:26.667Z,3.42
2019-06-26T23:11:57.165Z,3.45
2019-06-26T23:14:27.775Z,2.83
2019-06-26T23:16:59.256Z,3.40
2019-06-26T23:19:30.966Z,3.55
2019-06-26T23:22:01.511Z,4.03
2019-06-26T23:24:32.027Z,4.35
2019-06-26T23:27:03.004Z,3.72
2019-06-26T23:29:33.499Z,3.65
2019-06-26T23:32:04.372Z,3.60
2019-06-26T23:34:34.864Z,3.90
2019-06-26T23:37:05.371Z,3.90
2019-06-26T23:39:35.880Z,4.22
2019-06-26T23:42:06.392Z,3.50
2019-06-26T23:44:36.895Z,4.33
2019-06-26T23:47:07.496Z,4.25
2019-06-26T23:49:37.992Z,4.62
2019-06-26T23:52:08.496Z,4.33
2019-06-26T23:54:39.011Z,3.92
2019-06-26T23:57:09.552Z,4.20
2019-06-26T23:59:40.058Z,4.20
